Time;durP1;ratioP1;P1;durP2;ratioP2;P2;SDS_P1;SDS_P2;PMS_P1;PMS_P2;Temp;Humidity;BMP_temperature;BMP_pressure;BME280_temperature;BME280_humidity;BME280_pressure;Samples;Min_cycle;Max_cycle;Signal;HPM_P1;HPM_P2
2024/01/30 00:00:56;;;;;;;130.85;60.00;;;;;;;;;;4945408;28;20037;-86
2024/01/30 00:03:41;;;;;;;126.70;59.40;;;;;;;;;;4949670;28;20102;-86
2024/01/30 00:06:27;;;;;;;114.00;56.85;;;;;;;;;;4946882;28;20186;-87
2024/01/30 00:09:11;;;;;;;109.63;55.78;;;;;;;;;;4953357;28;20046;-88
2024/01/30 00:11:56;;;;;;;109.57;56.58;;;;;;;;;;4945780;28;20062;-86
2024/01/30 00:14:43;;;;;;;127.13;58.03;;;;;;;;;;4962567;28;20713;-86
2024/01/30 00:17:27;;;;;;;129.85;60.38;;;;;;;;;;4949560;28;20113;-87
2024/01/30 00:20:11;;;;;;;131.02;60.83;;;;;;;;;;4954592;28;20050;-86
2024/01/30 00:22:55;;;;;;;175.93;65.90;;;;;;;;;;4978078;28;20108;-87
2024/01/30 00:25:39;;;;;;;155.02;63.35;;;;;;;;;;4979478;28;20073;-87
2024/01/30 00:28:22;;;;;;;135.18;62.55;;;;;;;;;;4978341;28;20053;-87
2024/01/30 00:31:06;;;;;;;153.25;62.50;;;;;;;;;;4978188;28;20109;-86
2024/01/30 00:33:50;;;;;;;119.38;58.72;;;;;;;;;;4965460;28;20543;-86
2024/01/30 00:36:34;;;;;;;137.68;59.67;;;;;;;;;;4975579;28;20057;-86
2024/01/30 00:39:19;;;;;;;134.60;61.53;;;;;;;;;;4971119;28;20501;-87
2024/01/30 00:42:03;;;;;;;132.65;60.70;;;;;;;;;;4962545;28;20078;-89
2024/01/30 00:44:47;;;;;;;126.68;61.08;;;;;;;;;;4965889;28;20516;-86
2024/01/30 00:47:32;;;;;;;133.70;63.55;;;;;;;;;;4981528;28;20036;-87
2024/01/30 00:50:16;;;;;;;133.88;61.72;;;;;;;;;;4969235;28;20041;-86
2024/01/30 00:53:00;;;;;;;179.23;61.58;;;;;;;;;;4980833;28;20504;-85
2024/01/30 00:55:44;;;;;;;131.70;58.30;;;;;;;;;;4979868;28;20045;-85
2024/01/30 00:58:28;;;;;;;109.78;55.88;;;;;;;;;;4984060;28;20036;-85
2024/01/30 01:01:12;;;;;;;119.25;58.88;;;;;;;;;;4965909;28;20109;-85
2024/01/30 01:03:58;;;;;;;108.03;56.90;;;;;;;;;;4969749;28;20046;-87
2024/01/30 01:06:43;;;;;;;148.90;59.83;;;;;;;;;;4980271;28;20460;-86
2024/01/30 01:09:27;;;;;;;128.10;59.35;;;;;;;;;;4959922;28;20053;-86
2024/01/30 01:12:11;;;;;;;106.65;55.97;;;;;;;;;;4966896;28;20108;-86
2024/01/30 01:14:55;;;;;;;111.07;54.97;;;;;;;;;;4973374;28;20081;-86
2024/01/30 01:17:40;;;;;;;110.15;55.53;;;;;;;;;;4968229;28;20073;-85
2024/01/30 01:20:24;;;;;;;116.38;54.83;;;;;;;;;;4963751;28;20058;-86
2024/01/30 01:23:08;;;;;;;127.13;57.05;;;;;;;;;;4962883;28;20118;-86
2024/01/30 01:25:52;;;;;;;116.65;52.72;;;;;;;;;;4981014;28;20507;-85
2024/01/30 01:28:36;;;;;;;108.53;54.30;;;;;;;;;;4983870;28;20033;-85
2024/01/30 01:31:22;;;;;;;105.90;52.58;;;;;;;;;;4973437;28;20518;-85
2024/01/30 01:34:06;;;;;;;122.22;55.72;;;;;;;;;;4967719;28;20109;-86
2024/01/30 01:36:51;;;;;;;103.05;53.20;;;;;;;;;;4979778;28;20033;-86
2024/01/30 01:39:35;;;;;;;96.65;51.38;;;;;;;;;;4981063;28;20042;-86
2024/01/30 01:42:19;;;;;;;115.32;54.28;;;;;;;;;;4972135;28;20041;-86
2024/01/30 01:45:03;;;;;;;88.90;50.28;;;;;;;;;;4966365;28;20393;-86
2024/01/30 01:47:47;;;;;;;90.18;50.05;;;;;;;;;;4968108;28;20400;-85
2024/01/30 01:50:31;;;;;;;95.68;50.92;;;;;;;;;;4964807;28;20507;-88
2024/01/30 01:53:15;;;;;;;;;;;;;;;;;;4971077;28;20559;-83
2024/01/30 01:55:59;;;;;;;79.93;49.35;;;;;;;;;;4979578;28;20032;-86
2024/01/30 01:58:45;;;;;;;85.57;48.70;;;;;;;;;;4979762;28;20041;-88
2024/01/30 02:01:29;;;;;;;108.57;52.00;;;;;;;;;;4966449;28;20656;-86
2024/01/30 02:04:13;;;;;;;79.60;47.90;;;;;;;;;;4963635;28;20050;-87
2024/01/30 02:06:57;;;;;;;98.97;50.22;;;;;;;;;;4965767;28;20057;-88
2024/01/30 02:09:41;;;;;;;;;;;;;;;;;;4961525;28;20042;-84
2024/01/30 02:12:25;;;;;;;75.38;45.97;;;;;;;;;;4965672;28;19968;-86
2024/01/30 02:15:13;;;;;;;82.78;45.83;;;;;;;;;;4969266;28;20046;-87
2024/01/30 02:17:57;;;;;;;83.40;45.03;;;;;;;;;;4979190;28;20041;-87
2024/01/30 02:20:41;;;;;;;41.72;31.63;;;;;;;;;;4970174;28;20044;-88
2024/01/30 02:23:25;;;;;;;29.80;26.40;;;;;;;;;;4967139;28;20054;-87
2024/01/30 02:26:10;;;;;;;25.35;23.25;;;;;;;;;;4968834;28;20049;-85
2024/01/30 02:28:54;;;;;;;26.55;24.25;;;;;;;;;;4979275;28;20041;-87
2024/01/30 02:31:37;;;;;;;24.15;22.10;;;;;;;;;;4965514;28;20100;-85
2024/01/30 02:34:21;;;;;;;22.23;20.40;;;;;;;;;;4976795;28;20042;-85
2024/01/30 02:37:05;;;;;;;22.83;20.98;;;;;;;;;;4979887;28;20104;-86
2024/01/30 02:39:49;;;;;;;22.70;20.77;;;;;;;;;;4963117;28;20045;-86
2024/01/30 02:42:33;;;;;;;24.70;22.15;;;;;;;;;;4965403;28;20073;-85
2024/01/30 02:45:17;;;;;;;23.20;21.00;;;;;;;;;;4977030;28;20185;-85
2024/01/30 02:48:01;;;;;;;23.00;21.10;;;;;;;;;;4971413;28;20037;-85
2024/01/30 02:50:46;;;;;;;22.70;20.67;;;;;;;;;;4965260;28;20081;-85
2024/01/30 02:53:30;;;;;;;23.40;21.38;;;;;;;;;;4967146;28;20384;-86
2024/01/30 02:56:14;;;;;;;23.25;21.25;;;;;;;;;;4970241;28;20121;-86
2024/01/30 02:58:58;;;;;;;23.83;21.60;;;;;;;;;;4965920;28;20042;-87
2024/01/30 03:01:46;;;;;;;26.30;24.02;;;;;;;;;;4966085;28;20131;-85
2024/01/30 03:04:30;;;;;;;23.73;21.83;;;;;;;;;;4979644;28;20138;-88
2024/01/30 03:07:14;;;;;;;23.15;21.40;;;;;;;;;;4974932;28;20045;-85
2024/01/30 03:09:58;;;;;;;22.48;20.88;;;;;;;;;;4973922;28;20105;-85
2024/01/30 03:12:41;;;;;;;21.27;19.88;;;;;;;;;;4984179;28;20034;-86
2024/01/30 03:15:25;;;;;;;21.83;20.33;;;;;;;;;;4968982;28;20114;-84
2024/01/30 03:18:09;;;;;;;21.30;19.98;;;;;;;;;;4964945;28;20063;-86
2024/01/30 03:20:53;;;;;;;19.90;18.70;;;;;;;;;;4973919;28;20144;-85
2024/01/30 03:23:37;;;;;;;20.85;19.45;;;;;;;;;;4967487;28;20070;-85
2024/01/30 03:26:21;;;;;;;19.63;18.42;;;;;;;;;;4972965;28;20065;-84
2024/01/30 03:29:05;;;;;;;20.08;18.88;;;;;;;;;;4967952;28;20142;-85
2024/01/30 03:31:49;;;;;;;18.25;17.15;;;;;;;;;;4967090;28;20045;-85
2024/01/30 03:34:33;;;;;;;17.42;16.42;;;;;;;;;;4968923;28;20038;-85
2024/01/30 03:37:16;;;;;;;17.17;16.17;;;;;;;;;;4969410;28;20155;-84
2024/01/30 03:40:01;;;;;;;16.13;15.23;;;;;;;;;;4966434;28;20084;-85
2024/01/30 03:42:45;;;;;;;16.23;15.43;;;;;;;;;;4966099;28;20054;-84
2024/01/30 03:45:29;;;;;;;15.73;14.93;;;;;;;;;;4975023;28;20100;-87
2024/01/30 03:48:12;;;;;;;15.38;14.68;;;;;;;;;;4985375;28;20499;-86
2024/01/30 03:50:56;;;;;;;15.02;14.32;;;;;;;;;;4970229;28;20122;-86
2024/01/30 03:53:41;;;;;;;16.23;15.43;;;;;;;;;;4967028;28;20345;-85
2024/01/30 03:56:25;;;;;;;16.38;15.57;;;;;;;;;;4971203;28;20046;-85
2024/01/30 03:59:09;;;;;;;17.83;17.02;;;;;;;;;;4980575;28;20054;-86
2024/01/30 04:01:54;;;;;;;16.90;16.10;;;;;;;;;;4983291;28;20555;-84
2024/01/30 04:04:38;;;;;;;17.85;16.95;;;;;;;;;;4988512;28;20058;-87
2024/01/30 04:07:21;;;;;;;18.75;17.85;;;;;;;;;;4982870;28;20113;-85
2024/01/30 04:10:06;;;;;;;18.00;17.10;;;;;;;;;;4964848;28;20548;-85
2024/01/30 04:12:51;;;;;;;17.73;16.73;;;;;;;;;;4969176;28;20121;-86
2024/01/30 04:15:35;;;;;;;17.83;16.88;;;;;;;;;;4982750;28;20042;-88
2024/01/30 04:18:19;;;;;;;17.35;16.45;;;;;;;;;;4964546;28;20408;-87
2024/01/30 04:21:03;;;;;;;18.88;17.77;;;;;;;;;;4969972;28;20457;-87
2024/01/30 04:23:48;;;;;;;18.20;17.10;;;;;;;;;;4984325;28;20045;-86
2024/01/30 04:26:32;;;;;;;18.15;17.25;;;;;;;;;;4980724;28;20127;-87
2024/01/30 04:29:16;;;;;;;18.13;17.02;;;;;;;;;;4970291;28;20048;-87
2024/01/30 04:32:00;;;;;;;16.83;15.18;;;;;;;;;;4966177;28;20450;-86
2024/01/30 04:34:43;;;;;;;17.60;16.50;;;;;;;;;;4983594;28;20050;-84
2024/01/30 04:37:27;;;;;;;18.50;17.30;;;;;;;;;;4972809;28;20038;-88
2024/01/30 04:40:12;;;;;;;18.02;16.80;;;;;;;;;;4969114;28;20042;-87
2024/01/30 04:42:55;;;;;;;17.48;16.27;;;;;;;;;;4980744;28;20392;-86
2024/01/30 04:45:39;;;;;;;18.33;17.13;;;;;;;;;;4964747;28;22027;-88
2024/01/30 04:48:23;;;;;;;19.17;17.98;;;;;;;;;;4980957;28;20046;-85
2024/01/30 04:51:07;;;;;;;17.00;15.93;;;;;;;;;;4960143;28;20041;-87
2024/01/30 04:53:51;;;;;;;17.85;16.73;;;;;;;;;;4962184;28;20093;-87
2024/01/30 04:56:35;;;;;;;17.75;16.50;;;;;;;;;;4964433;28;20142;-86
2024/01/30 04:59:19;;;;;;;17.73;16.73;;;;;;;;;;4973179;28;20034;-86
2024/01/30 05:02:03;;;;;;;17.88;16.77;;;;;;;;;;4980239;28;20094;-86
2024/01/30 05:04:47;;;;;;;17.27;16.17;;;;;;;;;;4971197;28;20100;-87
2024/01/30 05:07:31;;;;;;;16.08;15.07;;;;;;;;;;4981479;28;20408;-85
2024/01/30 05:10:15;;;;;;;17.33;16.15;;;;;;;;;;4962296;28;20030;-87
2024/01/30 05:12:59;;;;;;;17.63;16.25;;;;;;;;;;4965428;28;20061;-85
2024/01/30 05:15:43;;;;;;;17.48;16.17;;;;;;;;;;4961006;28;20166;-86
2024/01/30 05:18:27;;;;;;;18.60;17.27;;;;;;;;;;4963232;28;20049;-86
2024/01/30 05:21:11;;;;;;;18.85;17.42;;;;;;;;;;4963826;28;20122;-86
2024/01/30 05:23:55;;;;;;;18.33;16.88;;;;;;;;;;4980303;28;20165;-88
2024/01/30 05:26:39;;;;;;;17.92;16.60;;;;;;;;;;4983656;28;20113;-87
2024/01/30 05:29:22;;;;;;;17.33;16.15;;;;;;;;;;4966134;28;20137;-86
2024/01/30 05:32:06;;;;;;;19.02;17.63;;;;;;;;;;4971216;28;20774;-84
2024/01/30 05:34:50;;;;;;;18.90;17.70;;;;;;;;;;4962599;28;20042;-87
2024/01/30 05:37:34;;;;;;;19.00;17.80;;;;;;;;;;4966245;28;20105;-85
2024/01/30 05:40:18;;;;;;;17.88;16.77;;;;;;;;;;4980069;28;20050;-86
2024/01/30 05:43:02;;;;;;;18.80;17.63;;;;;;;;;;4968391;28;20566;-84
2024/01/30 05:45:46;;;;;;;17.67;16.67;;;;;;;;;;4962443;28;20050;-84
2024/01/30 05:48:30;;;;;;;19.60;18.50;;;;;;;;;;4971958;28;20528;-87
2024/01/30 05:51:14;;;;;;;18.75;17.67;;;;;;;;;;4977502;28;20056;-87
2024/01/30 05:53:58;;;;;;;15.90;15.00;;;;;;;;;;4969295;28;20088;-87
2024/01/30 05:56:42;;;;;;;17.30;16.20;;;;;;;;;;4971504;28;20579;-86
2024/01/30 05:59:26;;;;;;;18.10;17.08;;;;;;;;;;4980363;28;20065;-89
2024/01/30 06:02:10;;;;;;;19.52;18.52;;;;;;;;;;4965229;28;20097;-86
2024/01/30 06:04:54;;;;;;;21.50;20.20;;;;;;;;;;4966125;28;20054;-86
2024/01/30 06:07:38;;;;;;;22.92;21.63;;;;;;;;;;4964159;28;20118;-87
2024/01/30 06:10:22;;;;;;;23.85;22.05;;;;;;;;;;4982661;28;20061;-85
2024/01/30 06:13:11;;;;;;;19.80;18.50;;;;;;;;;;4966456;28;20169;-86
2024/01/30 06:16:13;;;;;;;19.25;18.15;;;;;;;;;;4964093;28;20037;-86
2024/01/30 06:19:00;;;;;;;17.52;16.42;;;;;;;;;;4967851;28;20089;-85
2024/01/30 06:21:45;;;;;;;13.10;12.30;;;;;;;;;;4981802;28;20058;-85
2024/01/30 06:24:41;;;;;;;11.80;10.80;;;;;;;;;;4962315;28;20113;-87
2024/01/30 06:27:28;;;;;;;13.00;11.90;;;;;;;;;;4976692;28;20090;-86
2024/01/30 06:30:15;;;;;;;47.00;15.60;;;;;;;;;;4964399;28;20053;-86
2024/01/30 06:32:59;;;;;;;14.60;13.18;;;;;;;;;;4970336;28;20516;-88
2024/01/30 06:35:45;;;;;;;52.03;14.70;;;;;;;;;;4981589;28;20049;-86
2024/01/30 06:38:29;;;;;;;13.60;12.40;;;;;;;;;;4978437;28;20045;-87
2024/01/30 06:41:21;;;;;;;17.60;12.20;;;;;;;;;;4971855;28;20114;-87
2024/01/30 06:44:08;;;;;;;17.15;13.18;;;;;;;;;;4970866;28;20170;-85
2024/01/30 06:46:54;;;;;;;11.00;10.40;;;;;;;;;;4983114;28;20105;-86
2024/01/30 06:49:38;;;;;;;11.82;11.23;;;;;;;;;;4964141;28;20042;-85
2024/01/30 06:52:22;;;;;;;12.20;11.30;;;;;;;;;;4983131;28;20041;-86
2024/01/30 06:55:06;;;;;;;21.50;14.02;;;;;;;;;;4968627;28;20049;-84
2024/01/30 06:57:50;;;;;;;12.90;11.70;;;;;;;;;;4969219;28;20045;-85
2024/01/30 07:00:34;;;;;;;36.45;12.30;;;;;;;;;;4964292;28;20123;-87
2024/01/30 07:03:18;;;;;;;14.60;11.00;;;;;;;;;;4979880;28;20044;-85
2024/01/30 07:06:02;;;;;;;10.70;10.10;;;;;;;;;;4973739;28;20455;-86
2024/01/30 07:08:46;;;;;;;10.52;9.93;;;;;;;;;;4968405;28;20449;-88
2024/01/30 07:11:30;;;;;;;11.57;10.82;;;;;;;;;;4967136;28;20045;-88
2024/01/30 07:14:17;;;;;;;11.73;11.13;;;;;;;;;;4965965;28;20863;-86
2024/01/30 07:17:01;;;;;;;11.50;10.90;;;;;;;;;;4969369;28;20065;-87
2024/01/30 07:19:45;;;;;;;11.40;10.60;;;;;;;;;;4969431;28;20093;-85
2024/01/30 07:22:30;;;;;;;11.70;11.00;;;;;;;;;;4980193;28;20050;-85
2024/01/30 07:25:14;;;;;;;13.68;12.50;;;;;;;;;;4966354;28;20104;-86
2024/01/30 07:27:58;;;;;;;11.05;10.45;;;;;;;;;;4968682;28;20045;-85
2024/01/30 07:30:42;;;;;;;12.80;12.10;;;;;;;;;;4981474;28;20042;-86
2024/01/30 07:33:26;;;;;;;12.40;11.50;;;;;;;;;;4975187;28;20117;-87
2024/01/30 07:36:12;;;;;;;10.77;10.15;;;;;;;;;;4979122;28;20049;-86
2024/01/30 07:38:56;;;;;;;11.50;10.90;;;;;;;;;;4978442;28;20049;-85
2024/01/30 07:41:40;;;;;;;11.05;10.35;;;;;;;;;;4966333;28;20062;-86
2024/01/30 07:44:24;;;;;;;12.68;11.98;;;;;;;;;;4967427;28;20077;-86
2024/01/30 07:47:19;;;;;;;12.10;11.30;;;;;;;;;;4981049;28;20096;-90
2024/01/30 07:50:03;;;;;;;13.75;12.85;;;;;;;;;;4985587;28;20041;-86
2024/01/30 07:52:51;;;;;;;12.90;11.85;;;;;;;;;;4970244;28;20069;-87
2024/01/30 07:55:35;;;;;;;13.82;12.85;;;;;;;;;;4973942;28;20042;-88
2024/01/30 07:58:20;;;;;;;13.07;12.20;;;;;;;;;;4969588;28;20527;-86
2024/01/30 08:01:04;;;;;;;12.93;12.07;;;;;;;;;;4973381;28;20034;-86
2024/01/30 08:03:52;;;;;;;12.68;11.73;;;;;;;;;;4982409;28;20026;-88
2024/01/30 08:06:36;;;;;;;12.40;11.40;;;;;;;;;;4965947;28;20093;-86
2024/01/30 08:09:20;;;;;;;12.63;11.52;;;;;;;;;;4966868;28;20104;-87
2024/01/30 08:12:04;;;;;;;11.77;10.68;;;;;;;;;;4972129;28;20121;-89
2024/01/30 08:14:48;;;;;;;11.98;11.18;;;;;;;;;;4965117;28;20037;-87
2024/01/30 08:17:33;;;;;;;11.82;10.93;;;;;;;;;;4976566;28;20112;-88
2024/01/30 08:20:18;;;;;;;10.43;9.63;;;;;;;;;;4968514;28;20046;-87
2024/01/30 08:23:03;;;;;;;9.98;9.27;;;;;;;;;;4977588;28;20048;-88
2024/01/30 08:25:47;;;;;;;12.15;11.35;;;;;;;;;;4970225;28;20090;-87
2024/01/30 08:28:31;;;;;;;12.93;11.77;;;;;;;;;;4985621;28;20400;-91
2024/01/30 08:31:17;;;;;;;13.02;12.02;;;;;;;;;;4985393;28;20046;-91
2024/01/30 08:34:01;;;;;;;13.95;12.93;;;;;;;;;;4977951;28;20041;-86
2024/01/30 08:36:45;;;;;;;11.93;11.13;;;;;;;;;;4981455;28;20080;-87
2024/01/30 08:39:30;;;;;;;12.50;11.70;;;;;;;;;;4973977;28;20033;-87
2024/01/30 08:42:22;;;;;;;13.20;12.25;;;;;;;;;;4969460;28;20070;-85
2024/01/30 08:45:06;;;;;;;13.40;12.60;;;;;;;;;;4968189;28;20048;-85
2024/01/30 08:48:14;;;;;;;13.30;12.50;;;;;;;;;;4968874;28;20869;-88
2024/01/30 08:50:59;;;;;;;12.10;11.40;;;;;;;;;;4965538;28;20050;-84
2024/01/30 08:53:43;;;;;;;12.55;11.75;;;;;;;;;;4978557;28;20099;-88
2024/01/30 08:56:27;;;;;;;14.40;13.52;;;;;;;;;;4982833;28;20144;-87
2024/01/30 08:59:11;;;;;;;12.93;12.23;;;;;;;;;;4964031;28;20048;-87
2024/01/30 09:01:55;;;;;;;12.10;11.45;;;;;;;;;;4975802;28;20131;-88
2024/01/30 09:04:39;;;;;;;12.13;11.38;;;;;;;;;;4960777;28;20050;-89
2024/01/30 09:07:23;;;;;;;11.48;10.82;;;;;;;;;;4979646;28;20045;-90
2024/01/30 09:10:07;;;;;;;11.20;10.40;;;;;;;;;;4964819;28;20037;-89
2024/01/30 09:12:51;;;;;;;10.68;9.98;;;;;;;;;;4982173;28;20125;-89
2024/01/30 09:15:35;;;;;;;10.75;9.82;;;;;;;;;;4975393;28;20106;-90
2024/01/30 09:18:19;;;;;;;12.18;11.57;;;;;;;;;;4971009;28;20038;-90
2024/01/30 09:21:03;;;;;;;16.27;14.85;;;;;;;;;;4977055;28;20587;-90
2024/01/30 09:23:47;;;;;;;15.30;13.77;;;;;;;;;;4967846;28;20098;-91
2024/01/30 09:26:31;;;;;;;12.65;11.85;;;;;;;;;;4972249;28;20049;-91
2024/01/30 09:29:14;;;;;;;14.68;13.77;;;;;;;;;;4977723;28;20492;-92
2024/01/30 09:31:59;;;;;;;13.15;12.35;;;;;;;;;;4959013;29;20046;-89
2024/01/30 09:34:42;;;;;;;13.27;12.45;;;;;;;;;;4969450;28;20030;-90
2024/01/30 09:37:26;;;;;;;14.60;13.63;;;;;;;;;;4995327;28;20042;-89
2024/01/30 09:40:10;;;;;;;15.93;15.05;;;;;;;;;;4972645;28;20046;-92
2024/01/30 09:42:54;;;;;;;15.98;14.88;;;;;;;;;;4969204;28;20065;-90
2024/01/30 09:45:39;;;;;;;15.95;15.05;;;;;;;;;;4983583;28;20560;-90
2024/01/30 09:48:24;;;;;;;15.57;14.68;;;;;;;;;;4980012;28;20097;-92
2024/01/30 09:51:09;;;;;;;14.63;13.82;;;;;;;;;;4981204;28;20384;-91
2024/01/30 09:53:53;;;;;;;16.55;15.55;;;;;;;;;;4968622;28;20038;-88
2024/01/30 09:56:37;;;;;;;16.40;15.60;;;;;;;;;;4969766;28;20038;-88
2024/01/30 09:59:21;;;;;;;15.80;14.90;;;;;;;;;;4971284;28;20041;-90
2024/01/30 10:02:06;;;;;;;16.98;16.17;;;;;;;;;;4977054;28;20045;-88
2024/01/30 10:04:51;;;;;;;17.08;16.23;;;;;;;;;;4965922;28;20102;-87
2024/01/30 10:07:35;;;;;;;15.05;14.35;;;;;;;;;;4960526;28;20100;-92
2024/01/30 10:10:21;;;;;;;14.18;13.50;;;;;;;;;;4964781;28;20409;-89
2024/01/30 10:13:05;;;;;;;14.60;13.93;;;;;;;;;;4973009;28;20103;-88
2024/01/30 10:15:49;;;;;;;13.88;13.18;;;;;;;;;;4984628;28;20097;-89
2024/01/30 10:18:33;;;;;;;12.18;11.57;;;;;;;;;;4986125;28;20042;-89
2024/01/30 10:21:17;;;;;;;13.45;12.85;;;;;;;;;;4974767;28;20506;-90
2024/01/30 10:24:01;;;;;;;13.35;12.75;;;;;;;;;;4981153;28;20045;-90
2024/01/30 10:26:44;;;;;;;13.20;12.60;;;;;;;;;;4980357;28;20049;-90
2024/01/30 10:29:29;;;;;;;14.77;14.07;;;;;;;;;;4980452;28;20042;-90
2024/01/30 10:32:16;;;;;;;14.10;13.50;;;;;;;;;;4981425;28;20093;-92
2024/01/30 10:35:00;;;;;;;16.15;15.35;;;;;;;;;;4985056;28;20030;-91
2024/01/30 10:37:47;;;;;;;14.50;13.80;;;;;;;;;;4969934;28;20096;-90
2024/01/30 10:40:31;;;;;;;13.10;12.45;;;;;;;;;;4979242;28;20104;-89
2024/01/30 10:43:18;;;;;;;14.43;13.73;;;;;;;;;;4983653;28;20048;-90
2024/01/30 10:46:10;;;;;;;17.02;15.93;;;;;;;;;;4971701;28;20086;-92
2024/01/30 10:49:01;;;;;;;16.92;15.93;;;;;;;;;;4975895;28;20038;-89
2024/01/30 10:51:45;;;;;;;15.85;14.98;;;;;;;;;;4975435;28;20042;-90
2024/01/30 10:54:29;;;;;;;17.10;16.20;;;;;;;;;;4976430;28;20044;-89
2024/01/30 10:57:15;;;;;;;17.83;16.92;;;;;;;;;;4980154;28;20057;-90
2024/01/30 11:00:00;;;;;;;16.10;15.32;;;;;;;;;;4978998;28;20033;-90
2024/01/30 11:02:45;;;;;;;17.40;16.50;;;;;;;;;;4977020;28;20041;-89
2024/01/30 11:05:29;;;;;;;14.02;13.27;;;;;;;;;;4973887;28;20073;-88
2024/01/30 11:08:13;;;;;;;15.30;14.50;;;;;;;;;;4969151;28;20042;-91
2024/01/30 11:10:58;;;;;;;15.23;14.48;;;;;;;;;;4972619;28;20472;-88
2024/01/30 11:13:43;;;;;;;17.17;16.27;;;;;;;;;;4975560;28;20037;-89
2024/01/30 11:16:30;;;;;;;16.95;16.05;;;;;;;;;;4977471;28;20045;-90
2024/01/30 11:19:14;;;;;;;16.40;15.57;;;;;;;;;;4985113;28;20452;-90
2024/01/30 11:21:59;;;;;;;15.88;15.00;;;;;;;;;;4975746;28;20053;-89
2024/01/30 11:24:43;;;;;;;15.13;14.32;;;;;;;;;;4978068;28;20029;-90
2024/01/30 11:27:27;;;;;;;17.90;17.00;;;;;;;;;;4974915;28;20046;-89
2024/01/30 11:30:20;;;;;;;20.15;19.23;;;;;;;;;;4978855;28;20050;-89
2024/01/30 11:33:08;;;;;;;18.70;17.80;;;;;;;;;;4987975;28;20037;-89
2024/01/30 11:35:52;;;;;;;19.88;18.90;;;;;;;;;;4976832;28;20049;-89
2024/01/30 11:38:36;;;;;;;20.98;19.98;;;;;;;;;;4977556;28;20420;-88
2024/01/30 11:41:20;;;;;;;22.70;21.70;;;;;;;;;;4983736;28;20442;-92
2024/01/30 11:44:04;;;;;;;21.92;20.80;;;;;;;;;;4975726;28;20385;-91
2024/01/30 11:46:48;;;;;;;22.23;21.13;;;;;;;;;;4973074;28;20077;-89
2024/01/30 11:49:33;;;;;;;19.65;18.65;;;;;;;;;;4974275;28;20519;-89
2024/01/30 11:52:17;;;;;;;18.25;17.45;;;;;;;;;;4986350;28;20061;-91
2024/01/30 11:55:00;;;;;;;19.02;18.23;;;;;;;;;;4971454;28;20058;-89
2024/01/30 11:57:44;;;;;;;22.17;21.17;;;;;;;;;;4979851;28;20193;-88
2024/01/30 12:00:30;;;;;;;22.65;21.65;;;;;;;;;;4970244;28;20166;-91
2024/01/30 12:03:17;;;;;;;19.88;18.98;;;;;;;;;;4975306;28;20042;-91
2024/01/30 12:06:02;;;;;;;22.52;19.88;;;;;;;;;;4978189;28;20050;-89
2024/01/30 12:08:59;;;;;;;19.15;18.30;;;;;;;;;;4965555;28;20061;-89
2024/01/30 12:11:47;;;;;;;19.92;18.92;;;;;;;;;;4965819;28;20669;-88
2024/01/30 12:14:31;;;;;;;25.35;18.80;;;;;;;;;;4967649;28;20396;-86
2024/01/30 12:17:27;;;;;;;18.40;17.60;;;;;;;;;;4988362;28;20116;-88
2024/01/30 12:20:15;;;;;;;18.50;17.70;;;;;;;;;;4965057;28;20417;-87
2024/01/30 12:22:58;;;;;;;18.05;17.25;;;;;;;;;;4951653;28;20074;-85
2024/01/30 12:25:42;;;;;;;19.90;18.63;;;;;;;;;;4967499;28;20057;-89
2024/01/30 12:28:30;;;;;;;18.60;17.63;;;;;;;;;;4966341;28;20045;-88
2024/01/30 12:31:32;;;;;;;18.88;17.88;;;;;;;;;;4964353;28;20493;-87
2024/01/30 12:34:17;;;;;;;17.05;16.25;;;;;;;;;;4966239;28;20409;-88
2024/01/30 12:37:02;;;;;;;19.30;18.40;;;;;;;;;;4966504;28;20069;-90
2024/01/30 12:39:46;;;;;;;20.13;19.23;;;;;;;;;;4964785;28;20056;-88
2024/01/30 12:42:30;;;;;;;19.27;18.38;;;;;;;;;;4964504;28;20570;-88
2024/01/30 12:45:21;;;;;;;22.25;21.20;;;;;;;;;;4950933;29;20599;-89
2024/01/30 12:48:05;;;;;;;21.08;20.08;;;;;;;;;;4926091;29;20058;-88
2024/01/30 12:50:49;;;;;;;21.08;20.08;;;;;;;;;;4937033;29;20082;-90
2024/01/30 12:53:33;;;;;;;22.83;21.73;;;;;;;;;;4960063;29;20500;-90
2024/01/30 12:56:17;;;;;;;23.63;22.63;;;;;;;;;;4946946;29;20042;-89
2024/01/30 12:59:01;;;;;;;25.55;24.35;;;;;;;;;;4948047;29;20078;-90
2024/01/30 13:01:45;;;;;;;23.90;22.80;;;;;;;;;;4963766;28;20508;-89
2024/01/30 13:04:29;;;;;;;25.60;24.50;;;;;;;;;;4968385;28;20042;-89
2024/01/30 13:07:13;;;;;;;26.45;25.25;;;;;;;;;;4967219;28;20097;-90
2024/01/30 13:10:02;;;;;;;30.02;28.73;;;;;;;;;;4968347;28;20069;-89
2024/01/30 13:12:47;;;;;;;31.25;29.85;;;;;;;;;;4967892;28;20181;-90
2024/01/30 13:15:31;;;;;;;28.23;26.92;;;;;;;;;;4967246;28;20046;-89
2024/01/30 13:18:15;;;;;;;28.70;27.30;;;;;;;;;;4967232;28;20050;-88
2024/01/30 13:20:59;;;;;;;25.98;24.73;;;;;;;;;;4968791;28;20111;-89
2024/01/30 13:23:43;;;;;;;25.20;24.10;;;;;;;;;;4986803;28;20097;-91
2024/01/30 13:26:28;;;;;;;25.15;23.85;;;;;;;;;;4975687;28;20105;-85
2024/01/30 13:29:12;;;;;;;26.17;24.98;;;;;;;;;;4967439;28;20094;-85
2024/01/30 13:31:56;;;;;;;24.88;23.77;;;;;;;;;;4971715;28;20101;-87
2024/01/30 13:46:11;;;;;;;22.02;21.02;;;;;;;;;;4980841;28;20114;-86
2024/01/30 13:52:33;;;;;;;22.83;21.63;;;;;;;;;;4987581;28;20084;-86
2024/01/30 13:55:25;;;;;;;22.75;21.73;;;;;;;;;;4968756;28;20444;-87
2024/01/30 13:58:09;;;;;;;21.77;20.55;;;;;;;;;;4985879;28;20036;-86
2024/01/30 14:00:53;;;;;;;23.35;22.20;;;;;;;;;;4972608;28;20050;-85
2024/01/30 14:03:37;;;;;;;24.20;23.20;;;;;;;;;;4969398;28;20388;-85
2024/01/30 14:10:14;;;;;;;24.80;23.40;;;;;;;;;;4981325;28;20059;-87
2024/01/30 14:12:58;;;;;;;25.90;24.58;;;;;;;;;;4982644;28;20475;-85
2024/01/30 14:15:42;;;;;;;26.13;24.15;;;;;;;;;;4969046;28;20093;-87
2024/01/30 14:18:29;;;;;;;24.63;23.52;;;;;;;;;;4981719;28;20065;-85
2024/01/30 14:21:13;;;;;;;23.08;22.08;;;;;;;;;;4965080;28;20081;-85
2024/01/30 14:23:57;;;;;;;21.95;20.85;;;;;;;;;;4975524;28;20082;-89
2024/01/30 14:26:41;;;;;;;23.23;22.13;;;;;;;;;;4982563;28;20038;-87
2024/01/30 14:29:25;;;;;;;25.05;23.30;;;;;;;;;;4969471;28;20041;-83
2024/01/30 14:32:09;;;;;;;24.13;22.92;;;;;;;;;;4968256;28;20354;-86
2024/01/30 14:34:53;;;;;;;22.80;21.73;;;;;;;;;;4974048;28;20088;-87
2024/01/30 14:37:38;;;;;;;24.23;22.92;;;;;;;;;;4967411;28;20092;-87
2024/01/30 14:40:21;;;;;;;24.05;22.73;;;;;;;;;;4981776;28;20104;-86
2024/01/30 14:43:05;;;;;;;22.30;21.10;;;;;;;;;;4966201;28;20068;-86
2024/01/30 14:45:49;;;;;;;21.60;19.98;;;;;;;;;;4968907;28;20109;-86
2024/01/30 14:48:34;;;;;;;22.70;21.30;;;;;;;;;;4969746;28;20037;-85
2024/01/30 14:51:18;;;;;;;20.75;19.50;;;;;;;;;;4978348;28;20516;-85
2024/01/30 14:54:02;;;;;;;22.92;21.60;;;;;;;;;;4967081;28;20034;-86
2024/01/30 14:56:45;;;;;;;19.63;18.33;;;;;;;;;;4976643;28;20401;-84
2024/01/30 14:59:30;;;;;;;19.88;18.85;;;;;;;;;;4990492;28;20121;-89
2024/01/30 15:02:14;;;;;;;19.83;18.83;;;;;;;;;;5002496;28;20045;-88
2024/01/30 15:04:58;;;;;;;18.40;17.35;;;;;;;;;;4986473;28;20046;-88
2024/01/30 15:07:42;;;;;;;18.83;17.73;;;;;;;;;;5000941;28;20129;-89
2024/01/30 15:10:26;;;;;;;19.15;18.15;;;;;;;;;;4986717;28;20089;-88
2024/01/30 15:13:11;;;;;;;18.30;17.10;;;;;;;;;;4985388;28;20112;-88
2024/01/30 15:15:55;;;;;;;17.75;16.55;;;;;;;;;;4960715;29;20039;-89
2024/01/30 15:18:39;;;;;;;16.85;15.75;;;;;;;;;;4946927;29;20127;-87
2024/01/30 15:21:23;;;;;;;15.80;14.77;;;;;;;;;;4960838;29;20155;-87
2024/01/30 15:24:07;;;;;;;14.65;13.18;;;;;;;;;;4946834;29;20117;-88
2024/01/30 15:26:52;;;;;;;15.30;14.10;;;;;;;;;;4946797;29;20135;-88
2024/01/30 15:29:40;;;;;;;15.30;14.38;;;;;;;;;;4965887;28;20117;-86
2024/01/30 15:32:25;;;;;;;12.30;11.50;;;;;;;;;;4974361;28;20093;-89
2024/01/30 15:35:09;;;;;;;10.93;10.23;;;;;;;;;;4968063;28;20038;-88
2024/01/30 15:37:53;;;;;;;13.73;12.63;;;;;;;;;;4952145;28;20530;-89
2024/01/30 15:40:38;;;;;;;9.93;8.98;;;;;;;;;;4982462;28;20112;-90
2024/01/30 15:43:22;;;;;;;10.95;10.18;;;;;;;;;;4981945;28;20506;-88
2024/01/30 15:46:06;;;;;;;10.02;9.10;;;;;;;;;;4965164;28;20134;-89
2024/01/30 15:48:50;;;;;;;10.80;9.70;;;;;;;;;;4972771;28;20041;-88
2024/01/30 15:51:34;;;;;;;10.18;8.75;;;;;;;;;;4975681;28;20037;-89
2024/01/30 15:54:19;;;;;;;15.25;9.02;;;;;;;;;;4974614;28;20029;-85
2024/01/30 15:57:03;;;;;;;13.20;11.88;;;;;;;;;;4977504;28;20061;-87
2024/01/30 15:59:47;;;;;;;12.27;8.95;;;;;;;;;;4980368;28;20076;-87
2024/01/30 16:02:31;;;;;;;13.00;8.75;;;;;;;;;;4965241;28;20083;-88
2024/01/30 16:05:15;;;;;;;11.07;10.20;;;;;;;;;;4957199;28;20055;-87
2024/01/30 16:07:59;;;;;;;13.45;8.98;;;;;;;;;;4964771;28;20037;-88
2024/01/30 16:10:43;;;;;;;11.77;9.65;;;;;;;;;;4972899;28;20093;-87
2024/01/30 16:13:27;;;;;;;11.70;10.80;;;;;;;;;;4957245;28;20042;-90
2024/01/30 16:16:11;;;;;;;12.88;10.38;;;;;;;;;;4973739;28;20041;-89